createdAt,value
2023-02-02T00:00:50.811Z,20.99
2023-02-02T00:03:56.045Z,21.07
2023-02-02T00:06:59.428Z,20.97
2023-02-02T00:10:02.266Z,20.87
2023-02-02T00:13:05.084Z,20.82
2023-02-02T00:16:40.793Z,20.78
2023-02-02T00:19:46.842Z,20.72
2023-02-02T00:22:49.603Z,20.64
2023-02-02T00:25:52.450Z,20.65
2023-02-02T00:28:55.326Z,20.65
2023-02-02T00:31:58.223Z,20.58
2023-02-02T00:35:02.512Z,20.55
2023-02-02T00:38:05.284Z,20.48
2023-02-02T00:41:08.402Z,20.45
2023-02-02T00:44:28.850Z,20.44
2023-02-02T00:47:31.708Z,20.40
2023-02-02T00:50:35.989Z,20.37
2023-02-02T00:53:38.767Z,20.39
2023-02-02T00:56:41.613Z,20.30
2023-02-02T00:59:44.670Z,20.30
2023-02-02T01:02:47.693Z,20.23
2023-02-02T01:05:52.192Z,20.20
2023-02-02T01:08:54.977Z,20.14
2023-02-02T01:11:57.851Z,20.10
2023-02-02T01:15:00.727Z,20.08
2023-02-02T01:18:03.667Z,20.03
2023-02-02T01:21:08.931Z,20.00
2023-02-02T01:24:11.763Z,19.94
2023-02-02T01:27:14.623Z,19.90
2023-02-02T01:30:17.602Z,19.86
2023-02-02T01:33:20.977Z,19.81
2023-02-02T01:36:25.403Z,19.78
2023-02-02T01:39:28.260Z,19.73
2023-02-02T01:42:31.063Z,19.73
2023-02-02T01:45:33.919Z,19.69
2023-02-02T01:48:36.896Z,19.69
2023-02-02T01:51:43.443Z,19.67
2023-02-02T01:54:48.527Z,19.67
2023-02-02T01:57:53.112Z,19.64
2023-02-02T02:00:56.007Z,19.63
2023-02-02T02:03:58.883Z,19.62
2023-02-02T02:07:04.077Z,19.59
2023-02-02T02:10:07.419Z,19.58
2023-02-02T02:13:10.588Z,19.56
2023-02-02T02:16:19.463Z,19.53
2023-02-02T02:19:37.119Z,19.52
2023-02-02T02:23:10.367Z,19.49
2023-02-02T02:26:44.248Z,19.46
2023-02-02T02:30:04.620Z,19.43
2023-02-02T02:33:11.921Z,19.43
2023-02-02T02:36:18.257Z,19.40
2023-02-02T02:39:24.726Z,19.40
2023-02-02T02:42:29.916Z,19.38
2023-02-02T02:45:33.403Z,19.34
2023-02-02T02:48:37.660Z,19.32
2023-02-02T02:51:42.921Z,19.30
2023-02-02T02:54:49.896Z,19.27
2023-02-02T02:58:10.574Z,19.22
2023-02-02T03:01:19.505Z,19.21
2023-02-02T03:04:27.151Z,19.36
2023-02-02T03:07:33.467Z,19.44
2023-02-02T03:10:37.317Z,19.49
2023-02-02T03:13:40.876Z,19.61
2023-02-02T03:16:43.644Z,19.68
2023-02-02T03:19:47.813Z,19.81
2023-02-02T03:22:50.675Z,19.90
2023-02-02T03:25:53.612Z,19.95
2023-02-02T03:28:57.224Z,20.02
2023-02-02T03:32:00.122Z,20.03
2023-02-02T03:35:04.527Z,20.06
2023-02-02T03:38:07.381Z,20.13
2023-02-02T03:41:10.845Z,20.10
2023-02-02T03:44:13.644Z,20.14
2023-02-02T03:47:16.534Z,20.21
2023-02-02T03:50:20.807Z,20.17
2023-02-02T03:53:23.674Z,20.22
2023-02-02T03:56:26.536Z,20.25
2023-02-02T03:59:29.329Z,20.34
2023-02-02T04:02:32.212Z,20.36
2023-02-02T04:05:36.477Z,20.32
2023-02-02T04:08:39.540Z,20.24
2023-02-02T04:11:42.384Z,20.29
2023-02-02T04:14:45.230Z,20.32
2023-02-02T04:17:48.063Z,20.30
2023-02-02T04:20:56.715Z,20.29
2023-02-02T04:23:59.681Z,20.27
2023-02-02T04:27:02.497Z,20.29
2023-02-02T04:30:05.906Z,20.35
2023-02-02T04:33:08.775Z,20.33
2023-02-02T04:36:14.226Z,20.40
2023-02-02T04:39:17.043Z,20.46
2023-02-02T04:42:19.893Z,20.40
2023-02-02T04:45:22.880Z,20.43
2023-02-02T04:48:25.909Z,20.48
2023-02-02T04:51:30.188Z,20.48
2023-02-02T04:54:33.548Z,20.47
2023-02-02T04:57:36.401Z,20.49
2023-02-02T05:00:39.253Z,20.48
2023-02-02T05:03:42.098Z,20.51
2023-02-02T05:06:46.364Z,20.55
2023-02-02T05:09:49.183Z,20.55
2023-02-02T05:12:53.948Z,20.55
2023-02-02T05:15:56.786Z,20.56
2023-02-02T05:18:59.696Z,20.53
2023-02-02T05:22:03.950Z,20.59
2023-02-02T05:25:07.588Z,20.58
2023-02-02T05:28:10.379Z,20.52
2023-02-02T05:31:13.292Z,20.55
2023-02-02T05:34:16.240Z,20.50
2023-02-02T05:37:20.454Z,20.54
2023-02-02T08:55:19.325Z,18.10
2023-02-02T08:58:22.224Z,18.22
2023-02-02T09:01:25.792Z,18.40
2023-02-02T09:04:28.732Z,18.53
2023-02-02T09:07:32.845Z,18.74
2023-02-02T09:10:37.705Z,18.85
2023-02-02T09:13:41.314Z,18.97
2023-02-02T09:16:44.309Z,19.08
2023-02-02T09:19:47.236Z,19.12
2023-02-02T09:22:50.043Z,19.16
2023-02-02T09:25:54.337Z,19.30
2023-02-02T09:28:58.161Z,19.32
2023-02-02T09:32:01.124Z,19.38
2023-02-02T09:35:04.031Z,19.44
2023-02-02T09:38:06.885Z,19.33
2023-02-02T09:41:24.884Z,19.47
2023-02-02T09:44:50.459Z,19.42
2023-02-02T09:47:55.655Z,19.49
2023-02-02T09:51:00.832Z,19.56
2023-02-02T09:54:06.280Z,19.59
2023-02-02T09:57:15.021Z,19.57
2023-02-02T10:00:26.732Z,19.60
2023-02-02T10:03:32.273Z,19.50
2023-02-02T10:06:38.624Z,19.60
2023-02-02T10:09:44.837Z,19.80
2023-02-02T10:12:53.528Z,19.85
2023-02-02T10:16:01.853Z,19.62
2023-02-02T10:19:06.102Z,19.64
2023-02-02T10:22:13.033Z,19.65
2023-02-02T10:25:17.748Z,19.68
2023-02-02T10:28:26.008Z,19.69
2023-02-02T10:31:37.920Z,19.72
2023-02-02T10:34:42.765Z,19.77
2023-02-02T10:37:50.972Z,19.78
2023-02-02T10:40:58.762Z,19.85
2023-02-02T10:44:08.504Z,19.85
2023-02-02T10:47:14.167Z,19.92
2023-02-02T10:50:18.477Z,20.09
2023-02-02T10:53:21.781Z,20.06
2023-02-02T10:56:29.378Z,20.14
2023-02-02T10:59:34.726Z,20.25
2023-02-02T11:02:37.989Z,20.13
2023-02-02T11:05:58.509Z,20.33
2023-02-02T11:09:03.941Z,20.20
2023-02-02T11:12:11.828Z,20.10
2023-02-02T11:15:26.292Z,20.17
2023-02-02T11:18:30.268Z,20.13
2023-02-02T11:21:34.581Z,20.15
2023-02-02T11:24:42.539Z,20.16
2023-02-02T11:27:46.849Z,20.15
2023-02-02T11:30:53.288Z,20.18
2023-02-02T11:34:09.093Z,20.19
2023-02-02T11:37:16.096Z,20.17
2023-02-02T11:40:22.847Z,20.22
2023-02-02T11:43:28.364Z,20.19
2023-02-02T11:46:34.933Z,20.20
2023-02-02T11:49:43.271Z,20.20
2023-02-02T11:52:47.034Z,20.20
2023-02-02T11:55:49.965Z,20.24
2023-02-02T11:58:53.734Z,20.25
2023-02-02T12:02:11.489Z,20.27
2023-02-02T12:05:39.114Z,20.29
2023-02-02T12:08:43.353Z,20.31
2023-02-02T12:11:54.694Z,20.31
2023-02-02T12:15:02.794Z,20.30
2023-02-02T12:18:14.090Z,20.43
2023-02-02T12:21:22.610Z,20.33
2023-02-02T12:24:31.542Z,20.50
2023-02-02T12:27:40.755Z,20.82
2023-02-02T12:30:47.667Z,20.54
2023-02-02T12:33:54.680Z,20.46
2023-02-02T12:37:03.351Z,20.68
2023-02-02T12:40:16.449Z,20.60
2023-02-02T12:43:24.772Z,20.43
2023-02-02T12:46:34.802Z,20.37
2023-02-02T12:49:54.779Z,20.30
2023-02-02T12:53:08.907Z,20.30
2023-02-02T12:56:24.055Z,20.25
2023-02-02T12:59:36.226Z,20.25
2023-02-02T13:02:45.117Z,20.20
2023-02-02T13:05:59.134Z,20.22
2023-02-02T13:09:04.536Z,20.12
2023-02-02T13:12:10.351Z,20.09
2023-02-02T13:15:15.954Z,20.06
2023-02-02T13:18:21.053Z,19.99
2023-02-02T13:21:25.260Z,20.03
2023-02-02T13:24:31.162Z,19.92
2023-02-02T13:27:35.694Z,19.96
2023-02-02T13:30:39.815Z,20.01
2023-02-02T13:33:44.771Z,20.03
2023-02-02T13:36:51.547Z,20.10
2023-02-02T13:39:57.471Z,20.18
2023-02-02T13:43:06.406Z,20.22
2023-02-02T13:46:18.612Z,20.26
2023-02-02T13:49:25.042Z,20.26
2023-02-02T13:52:40.294Z,20.32
2023-02-02T13:55:56.188Z,20.31
2023-02-02T13:59:09.689Z,20.38
2023-02-02T14:02:20.880Z,20.47
2023-02-02T14:05:26.051Z,20.44
2023-02-02T14:08:30.174Z,20.44
2023-02-02T14:11:34.168Z,20.51
2023-02-02T14:14:39.958Z,20.63
2023-02-02T14:17:55.804Z,20.95
2023-02-02T14:20:58.667Z,20.62
2023-02-02T14:24:03.014Z,20.53
2023-02-02T14:27:26.317Z,20.51
2023-02-02T14:30:34.906Z,20.55
2023-02-02T14:33:47.524Z,20.54
2023-02-02T14:36:54.882Z,20.64
2023-02-02T14:40:04.380Z,20.62
2023-02-02T14:43:30.451Z,20.68
2023-02-02T14:46:39.494Z,20.63
2023-02-02T14:49:42.382Z,20.63
2023-02-02T14:52:45.292Z,20.59
2023-02-02T14:55:56.906Z,20.59
2023-02-02T14:59:01.584Z,20.63
2023-02-02T15:02:16.498Z,20.69
2023-02-02T15:05:41.746Z,20.76
2023-02-02T15:08:44.799Z,20.69
2023-02-02T15:12:06.346Z,20.69
2023-02-02T15:15:16.380Z,20.65
2023-02-02T15:18:25.940Z,20.68
2023-02-02T15:21:30.411Z,20.68
2023-02-02T15:24:36.803Z,20.63
2023-02-02T15:27:51.409Z,20.71
2023-02-02T15:31:02.127Z,20.69
2023-02-02T15:34:12.161Z,20.64
2023-02-02T15:37:16.470Z,20.98
2023-02-02T15:40:23.099Z,20.77
2023-02-02T15:43:28.839Z,20.74
2023-02-02T15:46:34.361Z,20.83
2023-02-02T15:49:38.629Z,20.74
2023-02-02T15:52:46.841Z,20.76
2023-02-02T15:55:49.760Z,20.80
2023-02-02T15:58:53.414Z,20.88
2023-02-02T16:02:01.638Z,20.89
2023-02-02T16:05:24.197Z,20.90
2023-02-02T16:08:28.981Z,20.82
2023-02-02T16:11:31.876Z,20.84
2023-02-02T16:14:39.643Z,20.83
2023-02-02T16:17:42.472Z,20.88
2023-02-02T16:20:47.909Z,20.88
2023-02-02T16:23:51.165Z,20.87
2023-02-02T16:26:55.450Z,20.82
2023-02-02T16:30:00.881Z,20.95
2023-02-02T16:33:18.497Z,20.91
2023-02-02T16:36:26.028Z,20.88
2023-02-02T16:39:29.215Z,20.90
2023-02-02T16:42:33.598Z,20.90
2023-02-02T16:45:44.211Z,20.89
2023-02-02T16:48:56.445Z,20.89
2023-02-02T16:52:11.632Z,20.98
2023-02-02T16:55:17.318Z,20.93
2023-02-02T16:58:22.464Z,20.93
2023-02-02T17:01:33.281Z,20.91
2023-02-02T17:04:36.309Z,20.80
2023-02-02T17:07:42.006Z,20.82
2023-02-02T17:10:47.668Z,20.78
2023-02-02T17:13:50.944Z,20.77
2023-02-02T17:16:53.710Z,20.75
2023-02-02T17:19:56.500Z,20.72
2023-02-02T17:23:02.702Z,20.65
2023-02-02T17:26:07.415Z,20.63
2023-02-02T17:29:10.471Z,20.57
2023-02-02T17:32:14.023Z,20.58
2023-02-02T17:35:17.344Z,20.66
2023-02-02T17:38:21.580Z,20.50
2023-02-02T17:41:24.375Z,20.55
2023-02-02T17:44:27.397Z,20.41
2023-02-02T17:47:30.289Z,20.38
2023-02-02T17:50:33.997Z,20.46
2023-02-02T17:53:38.130Z,20.32
2023-02-02T17:56:41.095Z,20.35
2023-02-02T17:59:43.843Z,20.31
2023-02-02T18:02:48.029Z,20.26
2023-02-02T18:05:51.176Z,20.26
2023-02-02T18:08:55.347Z,20.29
2023-02-02T18:11:58.126Z,20.27
2023-02-02T18:15:00.843Z,20.54
2023-02-02T18:18:03.707Z,20.54
2023-02-02T18:21:09.425Z,20.58
2023-02-02T18:24:15.615Z,20.65
2023-02-02T18:27:20.242Z,20.67
2023-02-02T18:30:23.139Z,20.73
2023-02-02T18:33:25.937Z,20.73
2023-02-02T18:36:28.762Z,20.82
2023-02-02T18:39:33.148Z,20.82
2023-02-02T18:42:36.880Z,20.83
2023-02-02T18:45:39.684Z,20.90
2023-02-02T18:48:43.126Z,20.90
2023-02-02T18:51:46.313Z,20.91
2023-02-02T18:54:50.778Z,20.93
2023-02-02T18:57:53.585Z,20.90
2023-02-02T19:00:56.357Z,20.91
2023-02-02T19:03:59.413Z,20.88
2023-02-02T19:07:19.867Z,20.84
2023-02-02T19:10:24.603Z,20.92
2023-02-02T19:13:28.702Z,20.91
2023-02-02T19:16:34.163Z,20.96
2023-02-02T19:19:38.935Z,20.98
2023-02-02T19:22:42.988Z,20.95
2023-02-02T19:25:51.097Z,20.99
2023-02-02T19:28:54.831Z,21.02
2023-02-02T19:32:00.649Z,20.99
2023-02-02T19:35:05.534Z,20.95
2023-02-02T19:38:11.700Z,20.92
2023-02-02T19:41:18.208Z,20.88
2023-02-02T19:44:22.222Z,20.84
2023-02-02T19:47:29.299Z,20.77
2023-02-02T19:50:35.645Z,20.74
2023-02-02T19:53:39.190Z,20.68
2023-02-02T19:56:43.363Z,20.65
2023-02-02T19:59:48.118Z,20.64
2023-02-02T20:02:57.208Z,20.57
2023-02-02T20:06:00.657Z,20.53
2023-02-02T20:09:11.035Z,20.51
2023-02-02T20:12:19.357Z,20.47
2023-02-02T20:15:26.113Z,20.51
2023-02-02T20:18:30.686Z,20.47
2023-02-02T20:21:37.451Z,20.45
2023-02-02T20:24:40.764Z,20.43
2023-02-02T20:27:45.658Z,20.54
2023-02-02T20:30:49.457Z,20.61
2023-02-02T20:33:53.400Z,20.65
2023-02-02T20:37:00.469Z,20.70
2023-02-02T20:40:08.843Z,20.78
2023-02-02T20:43:14.855Z,20.76
2023-02-02T20:46:18.591Z,20.83
2023-02-02T20:49:25.424Z,20.97
2023-02-02T20:52:30.990Z,21.11
2023-02-02T20:55:36.109Z,20.98
2023-02-02T20:58:40.442Z,20.97
2023-02-02T21:01:43.258Z,20.93
2023-02-02T21:04:47.353Z,20.98
2023-02-02T21:07:54.609Z,21.00
2023-02-02T21:10:57.453Z,20.97
2023-02-02T21:14:01.611Z,21.02
2023-02-02T21:17:14.311Z,21.03
2023-02-02T21:20:18.193Z,21.01
2023-02-02T21:23:29.977Z,21.07
2023-02-02T21:26:32.781Z,21.05
2023-02-02T21:29:37.004Z,21.03
2023-02-02T21:32:39.779Z,21.07
2023-02-02T21:35:42.561Z,21.07
2023-02-02T21:38:45.314Z,21.04
2023-02-02T21:41:48.751Z,21.13
2023-02-02T21:44:54.964Z,21.04
2023-02-02T21:47:59.070Z,21.11
2023-02-02T21:51:17.725Z,21.19
2023-02-02T21:54:24.424Z,21.13
2023-02-02T21:57:36.005Z,21.16
2023-02-02T22:00:40.140Z,21.20
2023-02-02T22:03:46.639Z,21.10
2023-02-02T22:06:50.020Z,21.16
2023-02-02T22:09:54.685Z,21.17
2023-02-02T22:12:57.658Z,21.14
2023-02-02T22:16:02.114Z,21.20
2023-02-02T22:19:16.265Z,21.17
2023-02-02T22:22:21.631Z,21.25
2023-02-02T22:25:29.381Z,21.24
2023-02-02T22:28:37.781Z,21.19
2023-02-02T22:31:42.000Z,21.23
2023-02-02T22:34:44.852Z,21.37
2023-02-02T22:37:47.646Z,21.22
2023-02-02T22:40:51.241Z,21.23
2023-02-02T22:43:53.988Z,21.24
2023-02-02T22:46:58.178Z,21.16
2023-02-02T22:50:00.951Z,21.20
2023-02-02T22:53:04.594Z,21.26
2023-02-02T22:56:07.693Z,21.22
2023-02-02T22:59:10.481Z,21.26
2023-02-02T23:02:14.676Z,21.26
2023-02-02T23:05:18.733Z,21.28
2023-02-02T23:08:21.535Z,21.30
2023-02-02T23:11:24.394Z,21.23
2023-02-02T23:14:27.172Z,21.21
2023-02-02T23:17:31.845Z,21.24
2023-02-02T23:20:34.723Z,21.21
2023-02-02T23:23:37.496Z,21.20
2023-02-02T23:26:40.297Z,21.27
2023-02-02T23:29:43.065Z,21.24
2023-02-02T23:32:47.262Z,21.21
2023-02-02T23:35:50.004Z,21.30
2023-02-02T23:38:52.765Z,21.27
2023-02-02T23:41:55.575Z,21.26
2023-02-02T23:44:58.439Z,21.32
2023-02-02T23:48:02.746Z,21.32
2023-02-02T23:51:05.608Z,21.31
2023-02-02T23:54:08.535Z,21.34
2023-02-02T23:57:11.572Z,21.34
